sensor_id;sensor_type;location;lat;lon;timestamp;temperature;humidity
14061;DHT22;7105;43.616;1.434;2023-05-09T00:01:55;17.40;99.90
14061;DHT22;7105;43.616;1.434;2023-05-09T00:04:23;17.30;99.90
14061;DHT22;7105;43.616;1.434;2023-05-09T00:06:49;17.10;99.90
14061;DHT22;7105;43.616;1.434;2023-05-09T00:09:18;17.20;99.90
14061;DHT22;7105;43.616;1.434;2023-05-09T00:11:44;17.10;99.90
14061;DHT22;7105;43.616;1.434;2023-05-09T00:14:09;17.00;99.90
14061;DHT22;7105;43.616;1.434;2023-05-09T00:16:37;17.00;99.90
14061;DHT22;7105;43.616;1.434;2023-05-09T00:19:02;17.00;99.90
14061;DHT22;7105;43.616;1.434;2023-05-09T00:21:28;16.90;99.90
14061;DHT22;7105;43.616;1.434;2023-05-09T00:23:55;16.90;99.90
14061;DHT22;7105;43.616;1.434;2023-05-09T00:26:21;16.90;99.90
14061;DHT22;7105;43.616;1.434;2023-05-09T00:28:47;16.90;99.90
14061;DHT22;7105;43.616;1.434;2023-05-09T00:31:12;16.90;99.90
14061;DHT22;7105;43.616;1.434;2023-05-09T00:33:38;16.80;99.90
14061;DHT22;7105;43.616;1.434;2023-05-09T00:36:04;16.80;99.90
14061;DHT22;7105;43.616;1.434;2023-05-09T00:38:30;16.80;99.90
14061;DHT22;7105;43.616;1.434;2023-05-09T00:40:55;16.80;99.90
14061;DHT22;7105;43.616;1.434;2023-05-09T00:43:21;16.70;99.90
14061;DHT22;7105;43.616;1.434;2023-05-09T00:45:47;16.70;99.90
14061;DHT22;7105;43.616;1.434;2023-05-09T00:48:15;16.70;99.90
14061;DHT22;7105;43.616;1.434;2023-05-09T00:50:41;16.70;99.90
14061;DHT22;7105;43.616;1.434;2023-05-09T00:53:08;16.60;99.90
14061;DHT22;7105;43.616;1.434;2023-05-09T00:55:34;16.60;99.90
14061;DHT22;7105;43.616;1.434;2023-05-09T00:58:01;16.60;99.90
14061;DHT22;7105;43.616;1.434;2023-05-09T01:00:27;16.50;99.90
14061;DHT22;7105;43.616;1.434;2023-05-09T01:02:54;16.50;99.90
14061;DHT22;7105;43.616;1.434;2023-05-09T01:05:22;16.40;99.90
14061;DHT22;7105;43.616;1.434;2023-05-09T01:10:42;16.30;99.90
14061;DHT22;7105;43.616;1.434;2023-05-09T01:13:36;16.30;99.90
14061;DHT22;7105;43.616;1.434;2023-05-09T01:16:22;16.30;99.90
14061;DHT22;7105;43.616;1.434;2023-05-09T01:18:57;16.30;99.90
14061;DHT22;7105;43.616;1.434;2023-05-09T01:21:29;16.30;99.90
14061;DHT22;7105;43.616;1.434;2023-05-09T01:24:24;16.20;99.90
14061;DHT22;7105;43.616;1.434;2023-05-09T01:30:02;16.30;99.90
14061;DHT22;7105;43.616;1.434;2023-05-09T01:32:29;16.30;99.90
14061;DHT22;7105;43.616;1.434;2023-05-09T01:35:00;16.30;99.90
14061;DHT22;7105;43.616;1.434;2023-05-09T01:37:32;16.30;99.90
14061;DHT22;7105;43.616;1.434;2023-05-09T01:40:09;16.30;99.90
14061;DHT22;7105;43.616;1.434;2023-05-09T01:42:42;16.40;99.90
14061;DHT22;7105;43.616;1.434;2023-05-09T01:45:09;16.30;99.90
14061;DHT22;7105;43.616;1.434;2023-05-09T01:47:36;16.30;99.90
14061;DHT22;7105;43.616;1.434;2023-05-09T01:50:04;16.40;99.90
14061;DHT22;7105;43.616;1.434;2023-05-09T01:52:31;16.50;99.90
14061;DHT22;7105;43.616;1.434;2023-05-09T01:55:00;16.50;99.90
14061;DHT22;7105;43.616;1.434;2023-05-09T01:57:28;16.40;99.90
14061;DHT22;7105;43.616;1.434;2023-05-09T01:59:55;16.50;99.90
14061;DHT22;7105;43.616;1.434;2023-05-09T02:02:22;16.50;99.90
14061;DHT22;7105;43.616;1.434;2023-05-09T02:04:48;16.60;99.90
14061;DHT22;7105;43.616;1.434;2023-05-09T02:07:14;16.50;99.90
14061;DHT22;7105;43.616;1.434;2023-05-09T02:09:40;16.40;99.90
14061;DHT22;7105;43.616;1.434;2023-05-09T02:12:06;16.50;99.90
14061;DHT22;7105;43.616;1.434;2023-05-09T02:14:31;16.40;99.90
14061;DHT22;7105;43.616;1.434;2023-05-09T02:16:59;16.20;99.90
14061;DHT22;7105;43.616;1.434;2023-05-09T02:19:32;16.30;99.90
14061;DHT22;7105;43.616;1.434;2023-05-09T02:21:57;16.20;99.90
14061;DHT22;7105;43.616;1.434;2023-05-09T02:24:23;16.20;99.90
14061;DHT22;7105;43.616;1.434;2023-05-09T02:26:49;16.20;99.90
14061;DHT22;7105;43.616;1.434;2023-05-09T02:29:16;16.20;99.90
14061;DHT22;7105;43.616;1.434;2023-05-09T02:31:45;16.20;99.90
14061;DHT22;7105;43.616;1.434;2023-05-09T02:34:13;16.30;99.90
14061;DHT22;7105;43.616;1.434;2023-05-09T02:36:39;16.40;99.90
14061;DHT22;7105;43.616;1.434;2023-05-09T02:39:05;16.30;99.90
14061;DHT22;7105;43.616;1.434;2023-05-09T02:41:31;16.20;99.90
14061;DHT22;7105;43.616;1.434;2023-05-09T02:43:57;16.30;99.90
14061;DHT22;7105;43.616;1.434;2023-05-09T02:46:23;16.20;99.90
14061;DHT22;7105;43.616;1.434;2023-05-09T02:48:48;16.30;99.90
14061;DHT22;7105;43.616;1.434;2023-05-09T02:51:14;16.20;99.90
14061;DHT22;7105;43.616;1.434;2023-05-09T02:53:40;16.20;99.90
14061;DHT22;7105;43.616;1.434;2023-05-09T02:56:05;16.30;99.90
14061;DHT22;7105;43.616;1.434;2023-05-09T02:58:33;16.30;99.90
14061;DHT22;7105;43.616;1.434;2023-05-09T03:00:58;16.20;99.90
14061;DHT22;7105;43.616;1.434;2023-05-09T03:03:24;16.20;99.90
14061;DHT22;7105;43.616;1.434;2023-05-09T03:05:50;16.20;99.90
14061;DHT22;7105;43.616;1.434;2023-05-09T03:08:15;16.30;99.90
14061;DHT22;7105;43.616;1.434;2023-05-09T03:10:41;16.30;99.90
14061;DHT22;7105;43.616;1.434;2023-05-09T03:13:07;16.30;99.90
14061;DHT22;7105;43.616;1.434;2023-05-09T03:15:33;16.30;99.90
14061;DHT22;7105;43.616;1.434;2023-05-09T03:17:58;16.20;99.90
14061;DHT22;7105;43.616;1.434;2023-05-09T03:20:25;16.10;99.90
14061;DHT22;7105;43.616;1.434;2023-05-09T03:22:51;16.20;99.90
14061;DHT22;7105;43.616;1.434;2023-05-09T03:25:17;16.20;99.90
14061;DHT22;7105;43.616;1.434;2023-05-09T03:27:43;16.10;99.90
14061;DHT22;7105;43.616;1.434;2023-05-09T03:30:09;16.10;99.90
14061;DHT22;7105;43.616;1.434;2023-05-09T03:32:35;16.00;99.90
14061;DHT22;7105;43.616;1.434;2023-05-09T03:35:00;16.00;99.90
14061;DHT22;7105;43.616;1.434;2023-05-09T03:37:26;16.10;99.90
14061;DHT22;7105;43.616;1.434;2023-05-09T03:39:51;16.10;99.90
14061;DHT22;7105;43.616;1.434;2023-05-09T03:42:17;16.10;99.90
14061;DHT22;7105;43.616;1.434;2023-05-09T03:44:46;16.10;99.90
14061;DHT22;7105;43.616;1.434;2023-05-09T03:47:12;16.10;99.90
14061;DHT22;7105;43.616;1.434;2023-05-09T03:49:37;16.10;99.90
14061;DHT22;7105;43.616;1.434;2023-05-09T03:52:03;16.20;99.90
14061;DHT22;7105;43.616;1.434;2023-05-09T03:54:29;16.20;99.90
14061;DHT22;7105;43.616;1.434;2023-05-09T03:56:54;16.10;99.90
14061;DHT22;7105;43.616;1.434;2023-05-09T03:59:20;16.00;99.90
14061;DHT22;7105;43.616;1.434;2023-05-09T04:01:45;16.00;99.90
14061;DHT22;7105;43.616;1.434;2023-05-09T04:04:11;16.00;99.90
14061;DHT22;7105;43.616;1.434;2023-05-09T04:06:37;16.00;99.90
14061;DHT22;7105;43.616;1.434;2023-05-09T04:09:03;15.90;99.90
14061;DHT22;7105;43.616;1.434;2023-05-09T04:11:28;15.90;99.90
14061;DHT22;7105;43.616;1.434;2023-05-09T04:13:55;15.90;99.90
14061;DHT22;7105;43.616;1.434;2023-05-09T04:16:20;15.90;99.90
14061;DHT22;7105;43.616;1.434;2023-05-09T04:18:46;16.00;99.90
14061;DHT22;7105;43.616;1.434;2023-05-09T04:21:11;15.90;99.90
14061;DHT22;7105;43.616;1.434;2023-05-09T04:23:37;15.90;99.90
14061;DHT22;7105;43.616;1.434;2023-05-09T04:26:03;15.90;99.90
14061;DHT22;7105;43.616;1.434;2023-05-09T04:28:29;15.80;99.90
14061;DHT22;7105;43.616;1.434;2023-05-09T04:30:54;15.80;99.90
14061;DHT22;7105;43.616;1.434;2023-05-09T04:33:20;15.70;99.90
14061;DHT22;7105;43.616;1.434;2023-05-09T04:35:46;15.70;99.90
14061;DHT22;7105;43.616;1.434;2023-05-09T04:38:13;15.80;99.90
14061;DHT22;7105;43.616;1.434;2023-05-09T04:40:38;15.80;99.90
14061;DHT22;7105;43.616;1.434;2023-05-09T04:43:04;15.70;99.90
14061;DHT22;7105;43.616;1.434;2023-05-09T04:45:30;15.60;99.90
14061;DHT22;7105;43.616;1.434;2023-05-09T04:47:56;15.70;99.90
14061;DHT22;7105;43.616;1.434;2023-05-09T04:50:21;15.80;99.90
14061;DHT22;7105;43.616;1.434;2023-05-09T04:52:47;15.90;99.90
14061;DHT22;7105;43.616;1.434;2023-05-09T04:55:15;15.90;99.90
14061;DHT22;7105;43.616;1.434;2023-05-09T04:57:40;15.80;99.90
14061;DHT22;7105;43.616;1.434;2023-05-09T05:00:06;15.80;99.90
14061;DHT22;7105;43.616;1.434;2023-05-09T05:02:32;15.80;99.90
14061;DHT22;7105;43.616;1.434;2023-05-09T05:04:58;15.90;99.90
14061;DHT22;7105;43.616;1.434;2023-05-09T05:07:23;15.90;99.90
14061;DHT22;7105;43.616;1.434;2023-05-09T05:09:49;16.00;99.90
14061;DHT22;7105;43.616;1.434;2023-05-09T05:12:15;15.90;99.90
14061;DHT22;7105;43.616;1.434;2023-05-09T05:14:40;15.90;99.90
14061;DHT22;7105;43.616;1.434;2023-05-09T05:17:06;15.90;99.90
14061;DHT22;7105;43.616;1.434;2023-05-09T05:19:32;15.90;99.90
14061;DHT22;7105;43.616;1.434;2023-05-09T05:21:58;16.00;99.90
14061;DHT22;7105;43.616;1.434;2023-05-09T05:24:24;16.00;99.90
14061;DHT22;7105;43.616;1.434;2023-05-09T05:26:49;16.00;99.90
14061;DHT22;7105;43.616;1.434;2023-05-09T05:29:15;16.10;99.90
14061;DHT22;7105;43.616;1.434;2023-05-09T05:31:42;15.90;99.90
14061;DHT22;7105;43.616;1.434;2023-05-09T05:34:07;15.90;99.90
14061;DHT22;7105;43.616;1.434;2023-05-09T05:36:33;16.00;99.90
14061;DHT22;7105;43.616;1.434;2023-05-09T05:38:58;16.10;99.90
14061;DHT22;7105;43.616;1.434;2023-05-09T05:41:24;16.00;99.90
14061;DHT22;7105;43.616;1.434;2023-05-09T05:43:51;16.10;99.90
14061;DHT22;7105;43.616;1.434;2023-05-09T05:46:17;16.20;99.90
14061;DHT22;7105;43.616;1.434;2023-05-09T05:48:42;16.30;99.90
14061;DHT22;7105;43.616;1.434;2023-05-09T05:51:08;16.20;99.90
14061;DHT22;7105;43.616;1.434;2023-05-09T05:53:34;16.10;99.90
14061;DHT22;7105;43.616;1.434;2023-05-09T05:55:59;16.20;99.90
14061;DHT22;7105;43.616;1.434;2023-05-09T05:58:25;16.40;99.90
14061;DHT22;7105;43.616;1.434;2023-05-09T06:00:54;16.40;99.90
14061;DHT22;7105;43.616;1.434;2023-05-09T06:03:20;16.60;99.90
14061;DHT22;7105;43.616;1.434;2023-05-09T06:05:46;16.50;99.90
14061;DHT22;7105;43.616;1.434;2023-05-09T06:08:11;16.50;99.90
14061;DHT22;7105;43.616;1.434;2023-05-09T06:10:37;16.50;99.90
14061;DHT22;7105;43.616;1.434;2023-05-09T06:13:03;16.60;99.90
14061;DHT22;7105;43.616;1.434;2023-05-09T06:15:28;16.70;99.90
14061;DHT22;7105;43.616;1.434;2023-05-09T06:17:54;16.80;99.90
14061;DHT22;7105;43.616;1.434;2023-05-09T06:20:20;16.80;99.90
14061;DHT22;7105;43.616;1.434;2023-05-09T06:22:45;16.80;99.90
14061;DHT22;7105;43.616;1.434;2023-05-09T06:25:11;17.00;99.90
14061;DHT22;7105;43.616;1.434;2023-05-09T06:27:37;17.00;99.90
14061;DHT22;7105;43.616;1.434;2023-05-09T06:30:03;16.80;99.90
14061;DHT22;7105;43.616;1.434;2023-05-09T06:32:29;16.80;99.90
14061;DHT22;7105;43.616;1.434;2023-05-09T06:34:55;16.90;99.90
14061;DHT22;7105;43.616;1.434;2023-05-09T06:37:20;16.90;99.90
14061;DHT22;7105;43.616;1.434;2023-05-09T06:39:46;16.90;99.90
14061;DHT22;7105;43.616;1.434;2023-05-09T06:42:12;17.00;99.90
14061;DHT22;7105;43.616;1.434;2023-05-09T06:44:37;17.00;99.90
14061;DHT22;7105;43.616;1.434;2023-05-09T06:47:03;17.10;99.90
14061;DHT22;7105;43.616;1.434;2023-05-09T06:49:29;17.10;99.90
14061;DHT22;7105;43.616;1.434;2023-05-09T06:51:54;17.00;99.90
14061;DHT22;7105;43.616;1.434;2023-05-09T06:54:20;17.00;99.90
14061;DHT22;7105;43.616;1.434;2023-05-09T06:56:46;16.90;99.90
14061;DHT22;7105;43.616;1.434;2023-05-09T06:59:11;16.80;99.90
14061;DHT22;7105;43.616;1.434;2023-05-09T07:01:40;16.90;99.90
14061;DHT22;7105;43.616;1.434;2023-05-09T07:04:06;16.90;99.90
14061;DHT22;7105;43.616;1.434;2023-05-09T07:06:32;17.00;99.90
14061;DHT22;7105;43.616;1.434;2023-05-09T07:08:57;17.00;99.90
14061;DHT22;7105;43.616;1.434;2023-05-09T07:11:23;17.00;99.90
14061;DHT22;7105;43.616;1.434;2023-05-09T07:13:49;17.00;99.90
14061;DHT22;7105;43.616;1.434;2023-05-09T07:16:14;17.00;99.90
14061;DHT22;7105;43.616;1.434;2023-05-09T07:18:42;17.00;99.90
14061;DHT22;7105;43.616;1.434;2023-05-09T07:21:07;17.00;99.90
14061;DHT22;7105;43.616;1.434;2023-05-09T07:23:33;17.10;99.90
14061;DHT22;7105;43.616;1.434;2023-05-09T07:25:59;17.20;99.90
14061;DHT22;7105;43.616;1.434;2023-05-09T07:28:25;17.20;99.90
14061;DHT22;7105;43.616;1.434;2023-05-09T07:30:51;17.10;99.90
14061;DHT22;7105;43.616;1.434;2023-05-09T07:33:19;17.20;99.90
14061;DHT22;7105;43.616;1.434;2023-05-09T07:35:44;17.30;99.90
14061;DHT22;7105;43.616;1.434;2023-05-09T07:38:10;17.40;99.90
14061;DHT22;7105;43.616;1.434;2023-05-09T07:40:36;17.50;99.90
14061;DHT22;7105;43.616;1.434;2023-05-09T07:43:03;17.50;99.90
14061;DHT22;7105;43.616;1.434;2023-05-09T07:45:29;17.70;99.90
14061;DHT22;7105;43.616;1.434;2023-05-09T07:47:54;17.60;99.90
14061;DHT22;7105;43.616;1.434;2023-05-09T07:50:20;17.80;99.90
14061;DHT22;7105;43.616;1.434;2023-05-09T07:52:47;17.90;99.90
14061;DHT22;7105;43.616;1.434;2023-05-09T07:55:13;17.80;99.90
14061;DHT22;7105;43.616;1.434;2023-05-09T07:57:39;17.80;99.90
14061;DHT22;7105;43.616;1.434;2023-05-09T08:00:06;17.70;99.90
14061;DHT22;7105;43.616;1.434;2023-05-09T08:02:32;17.90;99.90
14061;DHT22;7105;43.616;1.434;2023-05-09T08:04:58;18.00;99.90
14061;DHT22;7105;43.616;1.434;2023-05-09T08:07:23;18.00;99.90
14061;DHT22;7105;43.616;1.434;2023-05-09T08:09:49;18.10;99.90
14061;DHT22;7105;43.616;1.434;2023-05-09T08:12:14;18.20;99.90
14061;DHT22;7105;43.616;1.434;2023-05-09T08:14:40;18.10;99.90
14061;DHT22;7105;43.616;1.434;2023-05-09T08:17:06;18.20;99.90
14061;DHT22;7105;43.616;1.434;2023-05-09T08:19:31;18.30;99.90
14061;DHT22;7105;43.616;1.434;2023-05-09T08:21:57;18.50;99.90
14061;DHT22;7105;43.616;1.434;2023-05-09T08:24:23;18.50;99.90
14061;DHT22;7105;43.616;1.434;2023-05-09T08:26:48;18.70;99.90
14061;DHT22;7105;43.616;1.434;2023-05-09T08:29:14;18.50;99.90
14061;DHT22;7105;43.616;1.434;2023-05-09T08:31:40;18.80;99.90
14061;DHT22;7105;43.616;1.434;2023-05-09T08:34:06;19.20;99.90
14061;DHT22;7105;43.616;1.434;2023-05-09T08:36:32;19.20;99.90
14061;DHT22;7105;43.616;1.434;2023-05-09T08:38:58;19.10;99.90
14061;DHT22;7105;43.616;1.434;2023-05-09T08:41:24;19.10;99.90
14061;DHT22;7105;43.616;1.434;2023-05-09T08:43:54;19.20;99.90
14061;DHT22;7105;43.616;1.434;2023-05-09T08:46:29;19.00;99.90
14061;DHT22;7105;43.616;1.434;2023-05-09T08:48:56;19.00;99.90
14061;DHT22;7105;43.616;1.434;2023-05-09T08:51:22;18.80;99.90
14061;DHT22;7105;43.616;1.434;2023-05-09T08:53:49;18.90;99.90
14061;DHT22;7105;43.616;1.434;2023-05-09T08:56:16;18.90;99.90
14061;DHT22;7105;43.616;1.434;2023-05-09T08:58:42;19.20;99.90
14061;DHT22;7105;43.616;1.434;2023-05-09T09:01:08;19.20;99.90
14061;DHT22;7105;43.616;1.434;2023-05-09T09:03:36;19.20;99.90
14061;DHT22;7105;43.616;1.434;2023-05-09T09:06:05;19.10;99.90
14061;DHT22;7105;43.616;1.434;2023-05-09T09:08:33;19.30;99.90
14061;DHT22;7105;43.616;1.434;2023-05-09T09:11:00;19.40;99.90
14061;DHT22;7105;43.616;1.434;2023-05-09T09:13:26;19.40;99.90
14061;DHT22;7105;43.616;1.434;2023-05-09T09:15:53;19.30;99.90
14061;DHT22;7105;43.616;1.434;2023-05-09T09:18:24;19.20;99.90
14061;DHT22;7105;43.616;1.434;2023-05-09T09:20:56;19.00;99.90
14061;DHT22;7105;43.616;1.434;2023-05-09T09:23:25;18.80;99.90
14061;DHT22;7105;43.616;1.434;2023-05-09T09:25:58;18.80;99.90
14061;DHT22;7105;43.616;1.434;2023-05-09T09:28:24;19.00;99.90
14061;DHT22;7105;43.616;1.434;2023-05-09T09:30:50;18.90;99.90
14061;DHT22;7105;43.616;1.434;2023-05-09T09:33:23;18.80;99.90
14061;DHT22;7105;43.616;1.434;2023-05-09T09:35:50;18.60;99.90
14061;DHT22;7105;43.616;1.434;2023-05-09T09:38:19;18.50;99.90
14061;DHT22;7105;43.616;1.434;2023-05-09T09:40:52;18.30;99.90
14061;DHT22;7105;43.616;1.434;2023-05-09T09:43:19;18.20;99.90
14061;DHT22;7105;43.616;1.434;2023-05-09T09:45:48;18.10;99.90
14061;DHT22;7105;43.616;1.434;2023-05-09T09:48:15;18.10;99.90
14061;DHT22;7105;43.616;1.434;2023-05-09T09:50:40;18.10;99.90
14061;DHT22;7105;43.616;1.434;2023-05-09T09:53:06;18.00;99.90
14061;DHT22;7105;43.616;1.434;2023-05-09T09:55:33;18.10;99.90
14061;DHT22;7105;43.616;1.434;2023-05-09T09:57:59;18.10;99.90
14061;DHT22;7105;43.616;1.434;2023-05-09T10:00:26;18.10;99.90
14061;DHT22;7105;43.616;1.434;2023-05-09T10:02:57;18.20;99.90
14061;DHT22;7105;43.616;1.434;2023-05-09T10:05:27;18.10;99.90
14061;DHT22;7105;43.616;1.434;2023-05-09T10:08:03;17.90;99.90
14061;DHT22;7105;43.616;1.434;2023-05-09T10:10:31;17.70;99.90
14061;DHT22;7105;43.616;1.434;2023-05-09T10:13:08;17.70;99.90
14061;DHT22;7105;43.616;1.434;2023-05-09T10:15:35;17.50;99.90
14061;DHT22;7105;43.616;1.434;2023-05-09T10:18:04;17.30;99.90
14061;DHT22;7105;43.616;1.434;2023-05-09T10:20:33;16.90;99.90
14061;DHT22;7105;43.616;1.434;2023-05-09T10:23:02;16.80;99.90
14061;DHT22;7105;43.616;1.434;2023-05-09T10:25:37;16.50;99.90
14061;DHT22;7105;43.616;1.434;2023-05-09T10:28:09;16.20;99.90
14061;DHT22;7105;43.616;1.434;2023-05-09T10:31:03;16.20;99.90
14061;DHT22;7105;43.616;1.434;2023-05-09T10:33:52;15.90;99.90
14061;DHT22;7105;43.616;1.434;2023-05-09T10:36:19;15.80;99.90
14061;DHT22;7105;43.616;1.434;2023-05-09T10:38:49;15.60;99.90
14061;DHT22;7105;43.616;1.434;2023-05-09T10:41:16;15.70;99.90
14061;DHT22;7105;43.616;1.434;2023-05-09T10:43:42;15.80;99.90
14061;DHT22;7105;43.616;1.434;2023-05-09T10:46:09;15.70;99.90
14061;DHT22;7105;43.616;1.434;2023-05-09T10:48:35;15.80;99.90
14061;DHT22;7105;43.616;1.434;2023-05-09T10:51:02;15.60;99.90
14061;DHT22;7105;43.616;1.434;2023-05-09T10:53:42;15.90;99.90
14061;DHT22;7105;43.616;1.434;2023-05-09T10:56:21;16.00;99.90
14061;DHT22;7105;43.616;1.434;2023-05-09T10:58:47;15.60;99.90
14061;DHT22;7105;43.616;1.434;2023-05-09T11:01:13;15.50;99.90
14061;DHT22;7105;43.616;1.434;2023-05-09T11:03:53;15.80;99.90
14061;DHT22;7105;43.616;1.434;2023-05-09T11:12:10;16.00;99.90
14061;DHT22;7105;43.616;1.434;2023-05-09T11:17:13;15.70;99.90
14061;DHT22;7105;43.616;1.434;2023-05-09T11:22:31;15.70;99.90
14061;DHT22;7105;43.616;1.434;2023-05-09T11:25:10;15.50;99.90
14061;DHT22;7105;43.616;1.434;2023-05-09T11:27:49;15.60;99.90
14061;DHT22;7105;43.616;1.434;2023-05-09T11:30:18;15.80;99.90
14061;DHT22;7105;43.616;1.434;2023-05-09T11:35:19;15.90;99.90
14061;DHT22;7105;43.616;1.434;2023-05-09T11:37:46;15.90;99.90
14061;DHT22;7105;43.616;1.434;2023-05-09T11:40:14;16.00;99.90
14061;DHT22;7105;43.616;1.434;2023-05-09T11:42:43;15.80;99.90
14061;DHT22;7105;43.616;1.434;2023-05-09T11:45:13;15.90;99.90
14061;DHT22;7105;43.616;1.434;2023-05-09T11:47:39;16.00;99.90
14061;DHT22;7105;43.616;1.434;2023-05-09T11:50:09;16.10;99.90
14061;DHT22;7105;43.616;1.434;2023-05-09T11:52:36;16.20;99.90
14061;DHT22;7105;43.616;1.434;2023-05-09T11:55:06;16.20;99.90
14061;DHT22;7105;43.616;1.434;2023-05-09T11:57:33;16.20;99.90
14061;DHT22;7105;43.616;1.434;2023-05-09T11:59:59;16.20;99.90
14061;DHT22;7105;43.616;1.434;2023-05-09T12:02:26;16.20;99.90
14061;DHT22;7105;43.616;1.434;2023-05-09T12:04:51;16.10;99.90
14061;DHT22;7105;43.616;1.434;2023-05-09T12:07:18;16.10;99.90
14061;DHT22;7105;43.616;1.434;2023-05-09T12:09:45;16.20;99.90
14061;DHT22;7105;43.616;1.434;2023-05-09T12:12:13;16.20;99.90
14061;DHT22;7105;43.616;1.434;2023-05-09T12:14:39;16.30;99.90
14061;DHT22;7105;43.616;1.434;2023-05-09T12:17:06;16.30;99.90
14061;DHT22;7105;43.616;1.434;2023-05-09T12:19:32;16.40;99.90
14061;DHT22;7105;43.616;1.434;2023-05-09T12:21:59;16.10;99.90
14061;DHT22;7105;43.616;1.434;2023-05-09T12:24:27;16.30;99.90
14061;DHT22;7105;43.616;1.434;2023-05-09T12:26:53;16.20;99.90
14061;DHT22;7105;43.616;1.434;2023-05-09T12:29:20;16.20;99.90
14061;DHT22;7105;43.616;1.434;2023-05-09T12:31:47;16.30;99.90
14061;DHT22;7105;43.616;1.434;2023-05-09T12:34:14;16.30;99.90
14061;DHT22;7105;43.616;1.434;2023-05-09T12:36:41;16.20;99.90
14061;DHT22;7105;43.616;1.434;2023-05-09T12:39:10;16.50;99.90
14061;DHT22;7105;43.616;1.434;2023-05-09T12:41:49;16.60;99.90
14061;DHT22;7105;43.616;1.434;2023-05-09T12:44:20;16.50;99.90
14061;DHT22;7105;43.616;1.434;2023-05-09T12:46:58;16.40;99.90
14061;DHT22;7105;43.616;1.434;2023-05-09T12:49:24;16.40;99.90
14061;DHT22;7105;43.616;1.434;2023-05-09T12:51:51;16.40;99.90
14061;DHT22;7105;43.616;1.434;2023-05-09T12:56:48;16.10;99.90
14061;DHT22;7105;43.616;1.434;2023-05-09T12:59:19;15.90;99.90
14061;DHT22;7105;43.616;1.434;2023-05-09T13:01:54;15.90;99.90
14061;DHT22;7105;43.616;1.434;2023-05-09T13:04:21;16.10;99.90
14061;DHT22;7105;43.616;1.434;2023-05-09T13:06:48;16.10;99.90
14061;DHT22;7105;43.616;1.434;2023-05-09T13:09:15;16.00;99.90
14061;DHT22;7105;43.616;1.434;2023-05-09T13:11:40;16.10;99.90
14061;DHT22;7105;43.616;1.434;2023-05-09T13:14:07;16.10;99.90
14061;DHT22;7105;43.616;1.434;2023-05-09T13:16:34;16.30;99.90
14061;DHT22;7105;43.616;1.434;2023-05-09T13:19:00;16.30;99.90
14061;DHT22;7105;43.616;1.434;2023-05-09T13:21:30;16.40;99.90
14061;DHT22;7105;43.616;1.434;2023-05-09T13:23:55;16.40;99.90
14061;DHT22;7105;43.616;1.434;2023-05-09T13:26:21;16.30;99.90
14061;DHT22;7105;43.616;1.434;2023-05-09T13:28:47;16.30;99.90
14061;DHT22;7105;43.616;1.434;2023-05-09T13:31:13;16.40;99.90
14061;DHT22;7105;43.616;1.434;2023-05-09T13:33:38;16.60;99.90
14061;DHT22;7105;43.616;1.434;2023-05-09T13:36:04;16.50;99.90
14061;DHT22;7105;43.616;1.434;2023-05-09T13:38:31;16.50;99.90
14061;DHT22;7105;43.616;1.434;2023-05-09T13:41:01;16.60;99.90
14061;DHT22;7105;43.616;1.434;2023-05-09T13:43:27;16.60;99.90
14061;DHT22;7105;43.616;1.434;2023-05-09T13:45:52;16.60;99.90
14061;DHT22;7105;43.616;1.434;2023-05-09T13:48:18;16.60;99.90
14061;DHT22;7105;43.616;1.434;2023-05-09T13:50:44;16.50;99.90
14061;DHT22;7105;43.616;1.434;2023-05-09T13:53:10;16.40;99.90
14061;DHT22;7105;43.616;1.434;2023-05-09T13:55:35;16.50;99.90
14061;DHT22;7105;43.616;1.434;2023-05-09T13:58:01;16.50;99.90
14061;DHT22;7105;43.616;1.434;2023-05-09T14:00:26;16.40;99.90
14061;DHT22;7105;43.616;1.434;2023-05-09T14:02:52;16.50;99.90
14061;DHT22;7105;43.616;1.434;2023-05-09T14:05:18;16.40;99.90
14061;DHT22;7105;43.616;1.434;2023-05-09T14:07:44;16.40;99.90
14061;DHT22;7105;43.616;1.434;2023-05-09T14:10:10;16.40;99.90
14061;DHT22;7105;43.616;1.434;2023-05-09T14:12:36;16.30;99.90
14061;DHT22;7105;43.616;1.434;2023-05-09T14:15:05;16.20;99.90
14061;DHT22;7105;43.616;1.434;2023-05-09T14:17:31;16.20;99.90
14061;DHT22;7105;43.616;1.434;2023-05-09T14:19:57;16.30;99.90
14061;DHT22;7105;43.616;1.434;2023-05-09T14:22:22;16.40;99.90
14061;DHT22;7105;43.616;1.434;2023-05-09T14:24:48;16.40;99.90
14061;DHT22;7105;43.616;1.434;2023-05-09T14:27:13;16.40;99.90
14061;DHT22;7105;43.616;1.434;2023-05-09T14:29:39;16.30;99.90
14061;DHT22;7105;43.616;1.434;2023-05-09T14:32:05;16.40;99.90
14061;DHT22;7105;43.616;1.434;2023-05-09T14:34:32;16.50;99.90
14061;DHT22;7105;43.616;1.434;2023-05-09T14:36:58;16.50;99.90
14061;DHT22;7105;43.616;1.434;2023-05-09T14:39:23;16.50;99.90
14061;DHT22;7105;43.616;1.434;2023-05-09T14:41:49;16.40;99.90
14061;DHT22;7105;43.616;1.434;2023-05-09T14:44:16;16.50;99.90
14061;DHT22;7105;43.616;1.434;2023-05-09T14:46:42;16.40;99.90
14061;DHT22;7105;43.616;1.434;2023-05-09T14:49:10;16.30;99.90
14061;DHT22;7105;43.616;1.434;2023-05-09T14:51:35;16.40;99.90
14061;DHT22;7105;43.616;1.434;2023-05-09T14:54:02;16.30;99.90
14061;DHT22;7105;43.616;1.434;2023-05-09T14:56:28;16.30;99.90
14061;DHT22;7105;43.616;1.434;2023-05-09T14:58:53;16.30;99.90
14061;DHT22;7105;43.616;1.434;2023-05-09T15:01:19;16.40;99.90
14061;DHT22;7105;43.616;1.434;2023-05-09T15:03:45;16.60;99.90
14061;DHT22;7105;43.616;1.434;2023-05-09T15:06:12;16.70;99.90
14061;DHT22;7105;43.616;1.434;2023-05-09T15:08:38;16.60;99.90
14061;DHT22;7105;43.616;1.434;2023-05-09T15:11:04;16.60;99.90
14061;DHT22;7105;43.616;1.434;2023-05-09T15:13:29;16.70;99.90
14061;DHT22;7105;43.616;1.434;2023-05-09T15:15:55;16.80;99.90
14061;DHT22;7105;43.616;1.434;2023-05-09T15:18:21;16.80;99.90
14061;DHT22;7105;43.616;1.434;2023-05-09T15:20:51;17.10;99.90
14061;DHT22;7105;43.616;1.434;2023-05-09T15:23:16;17.40;99.90
14061;DHT22;7105;43.616;1.434;2023-05-09T15:25:45;17.50;99.90
14061;DHT22;7105;43.616;1.434;2023-05-09T15:28:11;17.70;99.90
14061;DHT22;7105;43.616;1.434;2023-05-09T15:30:37;17.70;99.90
14061;DHT22;7105;43.616;1.434;2023-05-09T15:33:05;17.50;99.90
14061;DHT22;7105;43.616;1.434;2023-05-09T15:35:31;17.60;99.90
14061;DHT22;7105;43.616;1.434;2023-05-09T15:37:57;17.80;99.90
14061;DHT22;7105;43.616;1.434;2023-05-09T15:40:23;17.60;99.90
14061;DHT22;7105;43.616;1.434;2023-05-09T15:42:48;17.50;99.90
14061;DHT22;7105;43.616;1.434;2023-05-09T15:45:15;17.60;99.90
14061;DHT22;7105;43.616;1.434;2023-05-09T15:47:41;17.40;99.90
14061;DHT22;7105;43.616;1.434;2023-05-09T15:50:07;17.30;99.90
14061;DHT22;7105;43.616;1.434;2023-05-09T15:52:33;17.40;99.90
14061;DHT22;7105;43.616;1.434;2023-05-09T15:54:58;17.50;99.90
14061;DHT22;7105;43.616;1.434;2023-05-09T15:57:25;17.40;99.90
14061;DHT22;7105;43.616;1.434;2023-05-09T15:59:51;17.50;99.90
14061;DHT22;7105;43.616;1.434;2023-05-09T16:02:19;17.60;99.90
14061;DHT22;7105;43.616;1.434;2023-05-09T16:04:49;17.60;99.90
14061;DHT22;7105;43.616;1.434;2023-05-09T16:07:17;17.60;99.90